Skip Navigation LinksHome page > Tools > METAR decoder Skip Navigation Links

METAR decoder

Settings

METAR

Chicago O'Hare Intl, Chicago

For information only: do not use for flight planning or navigation.
Latest weather
Observation time Friday, August 22, 2014 12:32 AM CDT
Local time Friday, August 22, 2014 12:53 AM CDT
Flight conditions Visual Meteorological Conditions
Winds
Wind direction South (170°)
Wind speed 3 mph
Visibility 9 mi.
Present weather thunderstorm
Sky condition
Ceiling 6,000 ft. broken clouds with cumulonimbus
Cloud layer broken clouds with cumulonimbus 6,000 ft.
Cloud layer broken clouds 7,500 ft.
Cloud layer overcast 20,000 ft.
Temperature 75°F
Dewpoint 70°F
Altimeter 29.92 in.Hg
Derived measurements
Relative humidity 83%
Density altitude 2050 ft.
Remarks
Special weather observation.
METAR SPUS31 KWBC 220536 SPECI KORD 220532Z 17003KT 9SM TS BKN060CB BKN075 OVC200 24/21 A2992

InnerDrive.Weather 4.0.5341.0 Release CLR 4.0.30319.34014
Copyright ©2014 Inner Drive Technology. All rights reserved. Portions Copyright ©1986-2014 David Braverman.

Find weather

Site navigation


Skip Navigation Links

Place info

Page info

PayPal - The safer, easier way to pay online!

Return home.

Copyright ©2014 Inner Drive Technology. Purveyors of fine, hand-crafted computer software. Page printed 2014-08-22T05:53:56 UTC.